Terre Haute International Hulman Field Terre Haute US
ICAO: KHUF
IATA: HUF
Category: Medium
Scheduled Services: No

Elevation: 589 ft
TransAlt. 18000 ft.

Airport Communications:
APP/DEP:119.8
ASOS:127.5
ATIS:127.5
GND:121.6
RACER OPS:143.55
RDO:122.2
TWR:118.3
UNICOM:122.95

KHUF Zoom In..

If you have problems with the map follow the link
https://www.worldairports.se/pages/airport.php?
ICAO=KHUF

Runways:

(A) RW 05 length 9020 ft width 150 ft
ILS 109.70 / hdg 49

(B) RW 14 length 7200 ft width 150 ft
---- / hdg 137

(C) RW 18 length 4000 ft width 150 ft
---- / hdg 182

(D) RW 23 length 9020 ft width 150 ft
---- / hdg 229

(E) RW 32 length 7200 ft width 150 ft
---- / hdg 317

(F) RW 36 length 4000 ft width 150 ft
---- / hdg 2

Location; KHUF
Day. 29 / Time. 16.53 Zulu
* Altimeter: 30.17
* Temperature: 02° c. 35.6°f.
* Wind from: 070° Speed 05 kn.
Dewpoint: -01° c.
Visibility: 10 Statute Miles.
Clouds: Broken 1100 ft.
Clouds: Broken 1900 ft.
Clouds: Overcast 2400 ft.

KHUF 291653Z 07005KT 10SM BKN011 BKN019 OVC024 02/M01 A3017 RMK AO2 SLP219 T00171006


Wind From 070°
Speed 05 kn.

 
 
jpsmedia worldairports.se 2020   terms of use